Wolfcreek, Wisconsin
Current Conditions -  °F | °C
As of 2:35 AM on Friday 19 Dec 2014 (Local Time) from KOEO Reporting Station
Overcast Overcast  
Wind Chill: 15°   Ceiling: 1400
Heat Index: 23°   Visibility: 10mi
Dew Point: 19°   Wind: 7mph
Humidity: 85%   Direction: 180°S
Pressure: 30.3"   Gusts: NA
Location:  45.4182°N, 92.6295°W
Report Text: KOEO 190835Z AUTO 18006KT 10SM OVC014 M05/M07 A3030 RMK AO2 T10511073
Loading
Personal Weather Stations






























Interactive Weather Map New forecast layout! Learn more

10-Day Weather Forecast

Advertisements
Track Severe Weather on mobile